Time;durP1;ratioP1;P1;durP2;ratioP2;P2;SDS_P1;SDS_P2;PMS_P1;PMS_P2;Temp;Humidity;BMP_temperature;BMP_pressure;BME280_temperature;BME280_humidity;BME280_pressure;Samples;Min_cycle;Max_cycle;Signal;HPM_P1;HPM_P2
2023/06/11 00:00:04;;;;;;;13.10;7.20;;;18.70;99.90;;;;;;5122137;28;20086;-57
2023/06/11 00:02:33;;;;;;;13.20;6.75;;;18.80;99.90;;;;;;5121597;28;20047;-57
2023/06/11 00:05:07;;;;;;;12.05;7.03;;;18.70;99.90;;;;;;5121712;28;20051;-57
2023/06/11 00:07:34;;;;;;;11.88;6.68;;;18.70;99.90;;;;;;5121759;28;20040;-57
2023/06/11 00:10:01;;;;;;;12.57;6.53;;;18.70;99.90;;;;;;5121555;28;20402;-57
2023/06/11 00:12:27;;;;;;;12.48;6.30;;;18.80;99.90;;;;;;5122073;28;20509;-56
2023/06/11 00:14:52;;;;;;;13.50;7.35;;;18.70;99.90;;;;;;5121522;28;20056;-57
2023/06/11 00:17:18;;;;;;;13.43;6.43;;;18.80;99.90;;;;;;5121670;28;20047;-57
2023/06/11 00:19:44;;;;;;;11.00;6.53;;;18.70;99.90;;;;;;5121323;28;20054;-56
2023/06/11 00:22:12;;;;;;;11.07;6.72;;;18.70;99.90;;;;;;5121377;28;20039;-56
2023/06/11 00:24:37;;;;;;;15.43;6.95;;;18.80;99.90;;;;;;5121188;28;20047;-56
2023/06/11 00:27:03;;;;;;;12.27;5.85;;;18.80;99.90;;;;;;5121224;28;20103;-56
2023/06/11 00:29:29;;;;;;;10.43;6.32;;;18.80;99.90;;;;;;5121766;28;20047;-57
2023/06/11 00:31:55;;;;;;;10.05;5.78;;;18.70;99.90;;;;;;5120780;28;20483;-57
2023/06/11 00:34:21;;;;;;;11.77;6.80;;;18.70;99.90;;;;;;5121267;28;20043;-57
2023/06/11 00:36:46;;;;;;;10.55;6.30;;;18.70;99.90;;;;;;5121227;28;20123;-56
2023/06/11 00:39:12;;;;;;;11.15;6.22;;;18.80;99.90;;;;;;5121051;28;20040;-57
2023/06/11 00:41:45;;;;;;;11.05;6.20;;;18.70;99.90;;;;;;5121200;28;20492;-56
2023/06/11 00:44:17;;;;;;;10.52;6.28;;;18.80;99.90;;;;;;5118478;28;20040;-56
2023/06/11 00:46:47;;;;;;;11.88;6.60;;;18.80;99.90;;;;;;5121168;28;20047;-57
2023/06/11 00:49:13;;;;;;;10.95;6.28;;;18.80;99.90;;;;;;5120942;28;20073;-57
2023/06/11 00:51:43;;;;;;;11.48;6.65;;;18.90;99.90;;;;;;5120821;28;20099;-56
2023/06/11 00:54:12;;;;;;;11.25;5.88;;;18.80;99.90;;;;;;5120969;28;20051;-56
2023/06/11 00:56:44;;;;;;;12.88;6.65;;;18.80;99.90;;;;;;5119418;28;20079;-57
2023/06/11 00:59:13;;;;;;;13.00;7.35;;;18.80;99.90;;;;;;5119959;28;20489;-57
2023/06/11 01:01:45;;;;;;;12.52;6.35;;;18.80;99.90;;;;;;5120380;28;20109;-57
2023/06/11 01:04:20;;;;;;;10.73;6.75;;;18.70;99.90;;;;;;5120812;28;20413;-57
2023/06/11 01:06:55;;;;;;;15.38;6.78;;;18.80;99.90;;;;;;5120641;28;20124;-57
2023/06/11 01:09:22;;;;;;;10.90;7.10;;;18.70;99.90;;;;;;5119358;28;20461;-57
2023/06/11 01:11:54;;;;;;;12.00;6.88;;;18.70;99.90;;;;;;5120493;28;20024;-57
2023/06/11 01:14:20;;;;;;;;;;;18.80;99.90;;;;;;5120551;28;20043;-56
2023/06/11 01:16:52;;;;;;;11.15;6.55;;;18.70;99.90;;;;;;5120850;28;19919;-57
2023/06/11 01:19:29;;;;;;;9.23;6.20;;;18.70;99.90;;;;;;5120662;28;20113;-56
2023/06/11 01:22:00;;;;;;;11.10;6.95;;;18.70;99.90;;;;;;5120253;28;20063;-56
2023/06/11 01:24:48;;;;;;;12.25;6.72;;;18.60;99.90;;;;;;5120146;28;20055;-57
2023/06/11 01:27:26;;;;;;;14.80;7.60;;;18.60;99.90;;;;;;5119852;28;20181;-57
2023/06/11 01:29:55;;;;;;;11.68;6.97;;;18.50;99.90;;;;;;5120527;28;20054;-56
2023/06/11 01:32:23;;;;;;;10.80;6.95;;;18.60;99.90;;;;;;5119962;28;20040;-57
2023/06/11 01:34:49;;;;;;;11.15;6.82;;;18.50;99.90;;;;;;5119757;28;20043;-56
2023/06/11 01:37:15;;;;;;;11.00;7.38;;;18.50;99.90;;;;;;5119986;28;20073;-56
2023/06/11 01:39:45;;;;;;;13.30;7.53;;;18.50;99.90;;;;;;5119935;28;20046;-57
2023/06/11 01:42:11;;;;;;;13.18;7.20;;;18.40;99.90;;;;;;5120647;28;20077;-57
2023/06/11 01:44:37;;;;;;;12.77;7.20;;;18.40;99.90;;;;;;5119489;28;20047;-57
2023/06/11 01:47:03;;;;;;;13.63;7.28;;;18.40;99.90;;;;;;5120281;28;20039;-57
2023/06/11 01:49:29;;;;;;;11.73;6.95;;;18.30;99.90;;;;;;5119752;28;20047;-56
2023/06/11 01:51:54;;;;;;;11.05;7.07;;;18.30;99.90;;;;;;5119609;28;20040;-57
2023/06/11 01:54:20;;;;;;;12.43;7.95;;;18.20;99.90;;;;;;5119569;28;20035;-57
2023/06/11 01:56:46;;;;;;;12.77;8.30;;;18.30;99.90;;;;;;5119557;28;20055;-57
2023/06/11 01:59:17;;;;;;;10.23;7.47;;;18.20;99.90;;;;;;5120193;28;20050;-57
2023/06/11 02:01:43;;;;;;;12.35;8.02;;;18.20;99.90;;;;;;5118843;28;20086;-57
2023/06/11 02:04:08;;;;;;;14.43;8.13;;;18.20;99.90;;;;;;5119707;28;20094;-56
2023/06/11 02:06:34;;;;;;;11.98;8.43;;;18.10;99.90;;;;;;5119588;28;20040;-57
2023/06/11 02:09:00;;;;;;;13.40;8.25;;;18.10;99.90;;;;;;5119488;28;20503;-57
2023/06/11 02:11:25;;;;;;;15.50;10.02;;;18.00;99.90;;;;;;5119183;28;20596;-57
2023/06/11 02:13:51;;;;;;;13.95;8.27;;;18.00;99.90;;;;;;5119196;28;20056;-56
2023/06/11 02:16:17;;;;;;;12.40;8.07;;;18.00;99.90;;;;;;5119505;28;20066;-57
2023/06/11 02:18:42;;;;;;;13.25;8.98;;;18.00;99.90;;;;;;5119049;28;20052;-56
2023/06/11 02:21:08;;;;;;;12.75;8.15;;;17.90;99.90;;;;;;5119565;28;20122;-57
2023/06/11 02:23:34;;;;;;;11.90;8.15;;;18.00;99.90;;;;;;5119203;28;20077;-57
2023/06/11 02:25:59;;;;;;;14.50;9.25;;;17.90;99.90;;;;;;5119172;28;20114;-57
2023/06/11 02:28:25;;;;;;;14.60;9.63;;;17.90;99.90;;;;;;5118967;28;20051;-56
2023/06/11 02:30:51;;;;;;;12.57;8.48;;;17.90;99.90;;;;;;5118974;27;20283;-56
2023/06/11 02:33:16;;;;;;;11.77;8.75;;;17.80;99.90;;;;;;5117722;28;20051;-56
2023/06/11 02:35:42;;;;;;;15.80;9.20;;;17.90;99.90;;;;;;5118755;28;20044;-59
2023/06/11 02:38:08;;;;;;;10.85;8.60;;;17.80;99.90;;;;;;5119480;28;20092;-59
2023/06/11 02:40:33;;;;;;;13.60;8.32;;;17.80;99.90;;;;;;5118750;28;20047;-59
2023/06/11 02:42:59;;;;;;;14.70;9.63;;;17.70;99.90;;;;;;5117611;28;20046;-56
2023/06/11 02:45:25;;;;;;;13.00;9.43;;;17.70;99.90;;;;;;5118157;28;20083;-57
2023/06/11 02:47:50;;;;;;;12.73;9.18;;;17.70;99.90;;;;;;5119060;28;20043;-57
2023/06/11 02:50:16;;;;;;;13.30;9.32;;;17.60;99.90;;;;;;5118553;28;20040;-56
2023/06/11 02:52:42;;;;;;;12.13;9.57;;;17.60;99.90;;;;;;5117108;28;20044;-56
2023/06/11 02:55:08;;;;;;;14.43;9.73;;;17.60;99.90;;;;;;5117942;28;20043;-57
2023/06/11 02:57:33;;;;;;;11.82;9.93;;;17.50;99.90;;;;;;5118354;28;20073;-56
2023/06/11 02:59:59;;;;;;;13.50;9.68;;;17.60;99.90;;;;;;5118870;28;20071;-57
2023/06/11 03:02:25;;;;;;;15.00;9.88;;;17.50;99.90;;;;;;5118233;28;20075;-57
2023/06/11 03:04:50;;;;;;;14.52;10.15;;;17.50;99.90;;;;;;5117167;28;20403;-56
2023/06/11 03:07:16;;;;;;;13.50;9.57;;;17.50;99.90;;;;;;5118196;28;20044;-56
2023/06/11 03:09:42;;;;;;;13.38;9.45;;;17.50;99.90;;;;;;5118415;28;20126;-57
2023/06/11 03:12:08;;;;;;;13.07;10.02;;;17.50;99.90;;;;;;5118532;28;20046;-57
2023/06/11 03:14:34;;;;;;;14.07;9.93;;;17.50;99.90;;;;;;5117648;28;20801;-56
2023/06/11 03:17:00;;;;;;;16.13;9.98;;;17.50;99.90;;;;;;5118712;28;20515;-57
2023/06/11 03:19:25;;;;;;;12.55;9.90;;;17.50;99.90;;;;;;5118615;28;20062;-57
2023/06/11 03:21:51;;;;;;;14.07;10.38;;;17.50;99.90;;;;;;5118080;28;20043;-57
2023/06/11 03:24:17;;;;;;;12.23;9.68;;;17.40;99.90;;;;;;5118220;28;20027;-57
2023/06/11 03:26:42;;;;;;;15.80;9.85;;;17.40;99.90;;;;;;5118096;28;20089;-56
2023/06/11 03:29:08;;;;;;;13.68;9.90;;;17.40;99.90;;;;;;5118376;28;20050;-56
2023/06/11 03:31:34;;;;;;;12.77;9.88;;;17.50;99.90;;;;;;5116312;28;20054;-56
2023/06/11 03:34:00;;;;;;;14.57;10.90;;;17.40;99.90;;;;;;5118616;28;20079;-57
2023/06/11 03:36:26;;;;;;;13.07;9.93;;;17.40;99.90;;;;;;5117949;28;20071;-57
2023/06/11 03:38:52;;;;;;;15.13;11.00;;;17.40;99.90;;;;;;5118110;28;20035;-57
2023/06/11 03:41:18;;;;;;;14.40;11.30;;;17.40;99.90;;;;;;5117899;28;20039;-56
2023/06/11 03:43:43;;;;;;;12.02;9.80;;;17.40;99.90;;;;;;5116662;28;20058;-57
2023/06/11 03:46:09;;;;;;;12.23;9.55;;;17.40;99.90;;;;;;5118110;28;20051;-57
2023/06/11 03:48:35;;;;;;;14.30;10.00;;;17.40;99.90;;;;;;5116595;28;20044;-57
2023/06/11 03:51:00;;;;;;;13.00;10.15;;;17.40;99.90;;;;;;5118537;28;20036;-57
2023/06/11 03:53:26;;;;;;;12.50;10.07;;;17.40;99.90;;;;;;5117763;28;20035;-56
2023/06/11 03:55:52;;;;;;;14.32;9.65;;;17.40;99.90;;;;;;5118140;28;20048;-57
2023/06/11 03:58:19;;;;;;;13.18;10.15;;;17.40;99.90;;;;;;5116254;28;20043;-57
2023/06/11 04:00:45;;;;;;;13.10;9.63;;;17.40;99.90;;;;;;5118093;28;20035;-57
2023/06/11 04:03:10;;;;;;;11.73;9.85;;;17.40;99.90;;;;;;5117662;28;20043;-57
2023/06/11 04:05:36;;;;;;;13.13;10.38;;;17.50;99.90;;;;;;5117627;28;20083;-57
2023/06/11 04:08:03;;;;;;;12.57;9.90;;;17.50;99.90;;;;;;5118369;28;20043;-57
2023/06/11 04:10:28;;;;;;;16.58;11.07;;;17.50;99.90;;;;;;5117902;28;20039;-56
2023/06/11 04:12:54;;;;;;;15.00;10.43;;;17.60;99.90;;;;;;5117608;28;20155;-54
2023/06/11 04:15:21;;;;;;;13.98;9.90;;;17.60;99.90;;;;;;5117725;28;20181;-56
2023/06/11 04:17:46;;;;;;;13.30;10.65;;;17.60;99.90;;;;;;5118022;28;20039;-57
2023/06/11 04:20:12;;;;;;;14.02;10.60;;;17.70;99.90;;;;;;5117662;28;20032;-57
2023/06/11 04:22:37;;;;;;;15.20;10.50;;;17.70;99.90;;;;;;5117255;28;20061;-57
2023/06/11 04:25:03;;;;;;;11.55;9.80;;;17.80;99.90;;;;;;5118171;28;20042;-57
2023/06/11 04:27:33;;;;;;;12.30;10.35;;;17.90;99.90;;;;;;5117124;28;20069;-57
2023/06/11 04:30:03;;;;;;;13.73;10.15;;;17.90;99.90;;;;;;5117819;28;20589;-56
2023/06/11 04:32:34;;;;;;;13.23;9.95;;;18.00;99.90;;;;;;5117304;28;20040;-57
2023/06/11 04:35:04;;;;;;;13.15;10.38;;;18.00;99.90;;;;;;5119465;28;20077;-56
2023/06/11 04:37:38;;;;;;;13.23;10.50;;;18.10;99.90;;;;;;5121453;27;20040;-57
2023/06/11 04:40:11;;;;;;;14.32;10.27;;;18.10;99.90;;;;;;5120676;28;20043;-59
2023/06/11 04:42:40;;;;;;;14.45;10.95;;;18.20;99.90;;;;;;5121532;28;20049;-56
2023/06/11 04:45:07;;;;;;;13.60;10.85;;;18.30;99.90;;;;;;5120874;28;20444;-58
2023/06/11 04:47:33;;;;;;;13.38;9.68;;;18.40;99.90;;;;;;5121094;28;20092;-59
2023/06/11 04:50:04;;;;;;;12.90;9.88;;;18.50;99.90;;;;;;5120598;28;20063;-58
2023/06/11 04:52:37;;;;;;;15.70;10.32;;;18.60;99.90;;;;;;5120638;28;20091;-58
2023/06/11 04:55:04;;;;;;;12.77;9.88;;;18.60;99.90;;;;;;5121443;28;20042;-56
2023/06/11 04:57:32;;;;;;;15.40;9.82;;;18.80;99.90;;;;;;5120597;28;20048;-58
2023/06/11 04:59:59;;;;;;;15.55;10.38;;;18.90;99.90;;;;;;5121030;28;20087;-57
2023/06/11 05:02:26;;;;;;;11.40;9.93;;;18.90;99.90;;;;;;5120499;28;20825;-57
2023/06/11 05:04:53;;;;;;;13.38;10.18;;;19.00;99.90;;;;;;5120741;28;20054;-58
2023/06/11 05:07:20;;;;;;;13.35;10.63;;;19.10;99.90;;;;;;5119301;28;20106;-57
2023/06/11 05:09:46;;;;;;;15.02;10.63;;;19.20;99.90;;;;;;5120488;28;20184;-58
2023/06/11 05:12:12;;;;;;;13.02;10.00;;;19.20;99.90;;;;;;5120892;28;20103;-58
2023/06/11 05:14:38;;;;;;;12.57;9.93;;;19.30;99.90;;;;;;5120032;28;20051;-57
2023/06/11 05:17:04;;;;;;;13.88;9.93;;;19.40;99.90;;;;;;5120657;28;20047;-58
2023/06/11 05:19:30;;;;;;;12.65;9.50;;;19.50;99.90;;;;;;5120247;28;20043;-58
2023/06/11 05:21:56;;;;;;;13.07;9.55;;;19.50;99.90;;;;;;5120448;28;20103;-58
2023/06/11 05:24:28;;;;;;;16.30;10.20;;;19.60;99.90;;;;;;5118586;28;20123;-59
2023/06/11 05:26:55;;;;;;;12.00;9.32;;;19.70;99.90;;;;;;5119874;28;20073;-58
2023/06/11 05:29:21;;;;;;;13.93;10.05;;;19.80;99.90;;;;;;5120765;28;20047;-58
2023/06/11 05:31:47;;;;;;;13.40;10.02;;;19.80;99.90;;;;;;5119676;27;20040;-57
2023/06/11 05:34:13;;;;;;;12.85;9.25;;;19.90;99.90;;;;;;5120147;28;20118;-57
2023/06/11 05:36:39;;;;;;;13.30;9.30;;;20.00;99.90;;;;;;5120152;28;20047;-57
2023/06/11 05:39:04;;;;;;;13.57;9.73;;;20.00;99.90;;;;;;5120314;28;20039;-57
2023/06/11 05:41:30;;;;;;;12.00;9.10;;;20.00;99.90;;;;;;5119866;28;20044;-57
2023/06/11 05:43:56;;;;;;;11.75;9.52;;;20.10;99.90;;;;;;5119857;27;20073;-57
2023/06/11 05:46:25;;;;;;;12.60;9.07;;;20.20;99.90;;;;;;5119670;28;20036;-56
2023/06/11 05:48:51;;;;;;;13.50;9.77;;;20.30;99.90;;;;;;5115162;28;20425;-57
2023/06/11 05:51:17;;;;;;;13.27;9.30;;;20.40;99.90;;;;;;5116387;28;20047;-58
2023/06/11 05:53:42;;;;;;;13.40;9.43;;;20.40;99.90;;;;;;5116352;28;20058;-57
2023/06/11 05:56:09;;;;;;;13.55;9.93;;;20.50;99.90;;;;;;5116299;28;20044;-57
2023/06/11 05:58:35;;;;;;;13.38;9.50;;;20.60;99.90;;;;;;5115859;28;20040;-57
2023/06/11 06:01:02;;;;;;;11.27;9.25;;;20.60;99.90;;;;;;5116119;28;20100;-57
2023/06/11 06:03:29;;;;;;;13.32;9.77;;;20.70;99.90;;;;;;5116265;28;20052;-57
2023/06/11 06:05:55;;;;;;;11.60;9.77;;;20.80;99.90;;;;;;5115970;28;20051;-57
2023/06/11 06:08:21;;;;;;;11.38;9.45;;;20.80;99.90;;;;;;5116267;28;20075;-56
2023/06/11 06:10:46;;;;;;;12.95;9.23;;;20.80;99.90;;;;;;5115826;28;20658;-57
2023/06/11 06:13:12;;;;;;;12.35;9.23;;;20.90;99.90;;;;;;5115474;28;20032;-57
2023/06/11 06:15:38;;;;;;;13.25;8.82;;;21.10;99.90;;;;;;5115385;28;20046;-57
2023/06/11 06:18:05;;;;;;;11.73;9.20;;;21.10;99.90;;;;;;5111477;28;20134;-58
2023/06/11 06:20:31;;;;;;;11.13;8.93;;;21.10;99.90;;;;;;5110570;28;20052;-57
2023/06/11 06:22:56;;;;;;;13.55;9.25;;;21.20;99.90;;;;;;5112659;28;20051;-57
2023/06/11 06:25:24;;;;;;;14.27;10.18;;;21.30;99.90;;;;;;5115235;28;20407;-57
2023/06/11 06:27:50;;;;;;;12.77;9.05;;;21.40;99.90;;;;;;5115226;28;20050;-56
2023/06/11 06:30:16;;;;;;;12.35;9.75;;;21.40;99.90;;;;;;5115213;28;20059;-62
2023/06/11 06:32:43;;;;;;;12.68;9.60;;;21.40;99.90;;;;;;5114676;28;20061;-57
2023/06/11 06:35:09;;;;;;;12.90;9.43;;;21.50;99.90;;;;;;5114514;28;20099;-57
2023/06/11 06:37:35;;;;;;;12.90;9.35;;;21.70;99.90;;;;;;5115608;28;20078;-57
2023/06/11 06:40:01;;;;;;;12.95;8.90;;;21.60;99.90;;;;;;5114805;28;20046;-57
2023/06/11 06:42:27;;;;;;;13.88;10.30;;;21.70;99.90;;;;;;5115474;28;20047;-58
2023/06/11 06:44:52;;;;;;;12.55;9.18;;;21.70;99.90;;;;;;5115328;28;20057;-57
2023/06/11 06:47:18;;;;;;;11.68;9.35;;;21.80;99.90;;;;;;5114763;28;20044;-58
2023/06/11 06:49:44;;;;;;;13.30;9.45;;;21.80;99.90;;;;;;5114397;28;20046;-58
2023/06/11 06:52:11;;;;;;;14.32;10.57;;;21.90;99.90;;;;;;5114854;28;20035;-58
2023/06/11 06:54:37;;;;;;;13.88;10.02;;;21.90;99.90;;;;;;5114661;28;20465;-57
2023/06/11 06:57:03;;;;;;;12.10;9.40;;;21.90;99.90;;;;;;5113656;28;20150;-57
2023/06/11 06:59:28;;;;;;;11.75;9.48;;;22.00;99.90;;;;;;5115175;28;20043;-57
2023/06/11 07:01:54;;;;;;;15.00;9.63;;;22.20;99.90;;;;;;5111738;28;20154;-58
2023/06/11 07:04:20;;;;;;;11.90;9.32;;;22.20;99.90;;;;;;5114568;28;20047;-58
2023/06/11 07:06:46;;;;;;;11.60;8.95;;;22.30;99.90;;;;;;5113147;28;20477;-58
2023/06/11 07:09:11;;;;;;;11.63;9.32;;;22.40;99.90;;;;;;5114842;28;20040;-58
2023/06/11 07:11:37;;;;;;;13.35;9.48;;;22.50;99.90;;;;;;5114916;28;20081;-58
2023/06/11 07:14:03;;;;;;;12.35;9.20;;;22.60;99.90;;;;;;5114353;28;20130;-58
2023/06/11 07:16:29;;;;;;;12.00;8.90;;;22.80;99.90;;;;;;5115411;28;20054;-57
2023/06/11 07:18:55;;;;;;;12.32;8.95;;;22.80;99.90;;;;;;5114536;28;20048;-58
2023/06/11 07:21:23;;;;;;;11.38;9.50;;;22.90;99.90;;;;;;5114573;28;20042;-58
2023/06/11 07:23:49;;;;;;;11.18;8.63;;;23.00;99.90;;;;;;5116270;28;20048;-58
2023/06/11 07:26:15;;;;;;;13.55;10.05;;;23.00;99.90;;;;;;5117182;28;20040;-58
2023/06/11 07:28:41;;;;;;;12.30;9.35;;;23.10;99.90;;;;;;5118124;28;20043;-58
2023/06/11 07:31:08;;;;;;;14.25;9.75;;;23.20;99.90;;;;;;5116754;28;20060;-58
2023/06/11 07:33:33;;;;;;;13.90;9.32;;;23.20;99.90;;;;;;5118292;28;20064;-58
2023/06/11 07:35:59;;;;;;;16.80;9.75;;;23.20;99.90;;;;;;5116798;28;20044;-57
2023/06/11 07:38:25;;;;;;;26.60;11.32;;;23.40;99.90;;;;;;5116764;28;20103;-57
2023/06/11 07:40:50;;;;;;;16.25;10.43;;;23.30;99.90;;;;;;5118132;28;20051;-58
2023/06/11 07:43:16;;;;;;;18.90;9.23;;;23.20;99.90;;;;;;5118067;28;20036;-58
2023/06/11 07:45:43;;;;;;;14.65;9.38;;;23.50;99.90;;;;;;5117891;28;20052;-57
2023/06/11 07:48:10;;;;;;;112.10;19.15;;;23.60;99.90;;;;;;5117678;28;20051;-57
2023/06/11 07:50:37;;;;;;;24.73;10.00;;;23.60;99.90;;;;;;5118424;28;20052;-58
2023/06/11 07:53:03;;;;;;;39.15;12.20;;;23.80;99.90;;;;;;5116100;28;20051;-57
2023/06/11 07:55:29;;;;;;;15.45;8.95;;;23.80;99.90;;;;;;5116801;28;20069;-58
2023/06/11 07:57:55;;;;;;;14.32;8.85;;;23.80;99.90;;;;;;5115784;28;20055;-58
2023/06/11 08:00:22;;;;;;;11.18;9.43;;;23.80;99.90;;;;;;5117908;28;20040;-58
2023/06/11 08:02:47;;;;;;;11.52;9.00;;;23.90;99.90;;;;;;5116393;28;20035;-58
2023/06/11 08:05:17;;;;;;;12.77;9.27;;;24.00;99.90;;;;;;5116352;28;20055;-58
2023/06/11 08:07:44;;;;;;;12.00;9.63;;;24.10;99.90;;;;;;5118375;28;20093;-58
2023/06/11 08:10:10;;;;;;;13.68;9.35;;;24.10;99.90;;;;;;5121291;28;20044;-58
2023/06/11 08:12:36;;;;;;;11.48;8.45;;;24.20;99.90;;;;;;5121828;28;20054;-55
2023/06/11 08:15:02;;;;;;;12.85;9.52;;;24.30;99.90;;;;;;5121562;28;20051;-58
2023/06/11 08:17:28;;;;;;;11.80;9.48;;;24.30;99.90;;;;;;5121611;28;20142;-58
2023/06/11 08:19:54;;;;;;;12.50;9.57;;;24.40;99.90;;;;;;5120003;28;20047;-57
2023/06/11 08:22:20;;;;;;;12.80;9.15;;;24.40;99.90;;;;;;5121558;28;20063;-57
2023/06/11 08:24:45;;;;;;;11.57;8.63;;;24.50;99.90;;;;;;5121771;28;20100;-58
2023/06/11 08:27:12;;;;;;;12.52;9.25;;;24.70;99.90;;;;;;5121058;28;20048;-58
2023/06/11 08:29:38;;;;;;;13.32;10.18;;;24.60;99.90;;;;;;5121821;28;20123;-58
2023/06/11 08:32:04;;;;;;;11.70;9.30;;;24.60;99.90;;;;;;5121257;28;20047;-58
2023/06/11 08:34:30;;;;;;;14.25;9.70;;;24.60;99.90;;;;;;5117352;28;20509;-58
2023/06/11 08:36:57;;;;;;;10.20;8.57;;;24.70;99.90;;;;;;5117949;28;20095;-57
2023/06/11 08:39:22;;;;;;;14.70;9.15;;;24.90;99.90;;;;;;5117864;28;20054;-58
2023/06/11 08:41:48;;;;;;;10.80;9.02;;;25.00;99.90;;;;;;5118031;28;20044;-58
2023/06/11 08:44:14;;;;;;;11.38;8.85;;;25.10;99.90;;;;;;5099227;28;20039;-58
2023/06/11 08:46:43;;;;;;;15.30;8.60;;;25.30;99.90;;;;;;5116403;28;20071;-59
2023/06/11 08:49:19;;;;;;;12.48;9.77;;;25.30;99.90;;;;;;5117811;28;20031;-58
2023/06/11 08:51:45;;;;;;;13.38;9.45;;;25.30;99.90;;;;;;5117842;27;20064;-57
2023/06/11 08:54:11;;;;;;;13.25;9.38;;;25.40;99.90;;;;;;5115988;28;20441;-57
2023/06/11 08:56:38;;;;;;;10.95;8.38;;;25.30;99.90;;;;;;5117641;28;20082;-58
2023/06/11 08:59:04;;;;;;;13.18;9.23;;;25.40;99.90;;;;;;5116596;28;20159;-58
2023/06/11 09:01:31;;;;;;;13.15;9.85;;;25.60;99.90;;;;;;5117169;28;20059;-58
2023/06/11 09:03:57;;;;;;;13.07;9.00;;;25.40;99.90;;;;;;5117384;27;20051;-58
2023/06/11 09:06:23;;;;;;;12.48;8.85;;;25.50;99.90;;;;;;5117322;28;20040;-58
2023/06/11 09:09:03;;;;;;;10.40;8.48;;;25.60;99.90;;;;;;5116655;28;20046;-57
2023/06/11 09:11:36;;;;;;;14.48;8.90;;;25.80;99.90;;;;;;5117390;28;20056;-58
2023/06/11 09:14:03;;;;;;;10.18;7.95;;;25.90;99.90;;;;;;5116803;28;20059;-58
2023/06/11 09:16:38;;;;;;;11.82;8.73;;;26.00;99.90;;;;;;5117722;28;20100;-57
2023/06/11 09:19:03;;;;;;;12.63;9.38;;;26.00;99.90;;;;;;5115966;28;20130;-57
2023/06/11 09:21:29;;;;;;;12.23;8.75;;;26.20;99.90;;;;;;5115696;28;20577;-58
2023/06/11 09:23:55;;;;;;;13.43;8.80;;;26.10;99.90;;;;;;5116930;28;20065;-58
2023/06/11 09:26:21;;;;;;;12.63;8.57;;;26.30;99.90;;;;;;5116904;28;20043;-58
2023/06/11 09:28:46;;;;;;;9.35;8.02;;;26.40;99.90;;;;;;5117012;28;20048;-57
2023/06/11 09:31:12;;;;;;;11.60;8.80;;;26.40;99.90;;;;;;5116356;28;20072;-56
2023/06/11 09:33:38;;;;;;;10.90;8.65;;;26.30;99.90;;;;;;5116951;28;20367;-58
2023/06/11 09:36:04;;;;;;;10.10;8.88;;;26.40;99.90;;;;;;5116696;28;20055;-58
2023/06/11 09:38:34;;;;;;;10.65;8.07;;;26.60;99.90;;;;;;5116746;28;20043;-58
2023/06/11 09:41:00;;;;;;;10.85;8.52;;;26.60;99.90;;;;;;5116430;28;20111;-57
2023/06/11 09:43:25;;;;;;;9.88;8.77;;;26.70;99.90;;;;;;5116295;28;20086;-58
2023/06/11 09:45:53;;;;;;;10.63;8.73;;;26.70;99.90;;;;;;5116346;28;20036;-58
2023/06/11 09:48:23;;;;;;;12.30;8.93;;;26.80;99.80;;;;;;5116033;28;20151;-58
2023/06/11 09:50:50;;;;;;;12.57;8.43;;;26.90;99.90;;;;;;5115846;28;20085;-58
2023/06/11 09:53:17;;;;;;;10.10;8.20;;;27.00;99.90;;;;;;5115944;28;20043;-57
2023/06/11 09:55:43;;;;;;;10.82;8.10;;;27.10;99.60;;;;;;5114762;28;20102;-58
2023/06/11 09:58:10;;;;;;;11.48;8.52;;;27.20;99.90;;;;;;5115958;27;20067;-58
2023/06/11 10:00:36;;;;;;;10.55;8.00;;;27.30;99.50;;;;;;5114932;28;20061;-58
2023/06/11 10:03:03;;;;;;;10.27;7.95;;;27.20;98.70;;;;;;5115861;28;20067;-58
2023/06/11 10:05:29;;;;;;;10.73;7.95;;;27.40;98.80;;;;;;5115697;28;20055;-58
2023/06/11 10:08:07;;;;;;;11.05;7.88;;;27.40;98.10;;;;;;5116507;28;20035;-58
2023/06/11 10:10:39;;;;;;;10.57;7.82;;;27.40;98.80;;;;;;5114116;28;20055;-58
2023/06/11 10:13:05;;;;;;;10.48;7.45;;;27.50;98.60;;;;;;5115901;28;20043;-58
2023/06/11 10:15:31;;;;;;;12.95;8.57;;;27.70;98.30;;;;;;5115426;28;20111;-58
2023/06/11 10:17:58;;;;;;;10.05;7.80;;;27.60;97.90;;;;;;5115537;28;20051;-58
2023/06/11 10:20:29;;;;;;;14.68;7.97;;;27.70;98.00;;;;;;5116023;28;20071;-58
2023/06/11 10:23:05;;;;;;;10.45;7.68;;;27.60;97.10;;;;;;5114930;28;20046;-58
2023/06/11 10:25:39;;;;;;;13.90;6.95;;;27.80;97.70;;;;;;5115764;28;20051;-57
2023/06/11 10:28:05;;;;;;;12.60;7.85;;;27.90;96.40;;;;;;5115521;28;20039;-58
2023/06/11 10:30:32;;;;;;;9.10;7.38;;;27.80;96.60;;;;;;5115766;28;20053;-58
2023/06/11 10:32:58;;;;;;;11.57;7.65;;;28.00;96.90;;;;;;5114992;28;20097;-58
2023/06/11 10:35:28;;;;;;;11.38;7.20;;;28.10;96.80;;;;;;5115291;28;20047;-57
2023/06/11 10:38:07;;;;;;;10.88;7.57;;;28.20;96.40;;;;;;5115864;28;20071;-58
2023/06/11 10:40:37;;;;;;;9.65;7.40;;;28.40;96.00;;;;;;5115532;28;20091;-58
2023/06/11 10:43:15;;;;;;;10.10;6.85;;;28.30;95.80;;;;;;5115509;28;20055;-58
2023/06/11 10:45:41;;;;;;;10.75;6.97;;;28.40;95.70;;;;;;5114884;28;20591;-58
2023/06/11 10:48:07;;;;;;;10.18;7.07;;;28.50;95.60;;;;;;5115201;28;20124;-58
2023/06/11 10:50:33;;;;;;;9.65;7.32;;;28.50;95.70;;;;;;5115657;28;20043;-58
2023/06/11 10:53:11;;;;;;;10.05;6.93;;;28.70;95.30;;;;;;5114689;28;20040;-57
2023/06/11 10:55:47;;;;;;;10.25;7.38;;;28.70;93.30;;;;;;5115098;28;20630;-57
2023/06/11 10:58:23;;;;;;;12.32;7.32;;;28.60;94.00;;;;;;5114724;28;20065;-58
2023/06/11 11:00:52;;;;;;;10.80;6.00;;;28.80;92.80;;;;;;5115112;28;20058;-58
2023/06/11 11:03:25;;;;;;;10.40;6.63;;;28.80;93.70;;;;;;5115260;28;20048;-58
2023/06/11 11:05:52;;;;;;;9.55;6.57;;;28.70;93.40;;;;;;5114841;28;20047;-58
2023/06/11 11:08:18;;;;;;;8.98;5.82;;;28.90;92.60;;;;;;5115410;28;20040;-58
2023/06/11 11:10:44;;;;;;;9.93;6.38;;;29.00;92.40;;;;;;5114708;28;20047;-57
2023/06/11 11:13:10;;;;;;;10.43;6.25;;;29.00;91.00;;;;;;5115059;28;20036;-57
2023/06/11 11:15:37;;;;;;;9.23;6.53;;;29.00;92.40;;;;;;5115062;28;20087;-58
2023/06/11 11:18:02;;;;;;;10.85;6.00;;;28.90;90.40;;;;;;5114593;28;20126;-58
2023/06/11 11:20:32;;;;;;;152.95;18.50;;;29.00;90.70;;;;;;5115048;28;20458;-58
2023/06/11 11:22:58;;;;;;;11.60;6.85;;;28.90;89.20;;;;;;5114221;28;20052;-58
2023/06/11 11:25:29;;;;;;;91.63;15.50;;;28.90;90.40;;;;;;5114718;28;20843;-58
2023/06/11 11:27:55;;;;;;;10.82;6.45;;;29.00;90.30;;;;;;5113346;28;20096;-57
2023/06/11 11:30:21;;;;;;;9.70;5.90;;;29.10;90.50;;;;;;5114640;28;20081;-58
2023/06/11 11:32:48;;;;;;;11.15;6.18;;;29.10;90.20;;;;;;5114071;28;20043;-58
2023/06/11 11:35:14;;;;;;;9.52;5.93;;;29.20;90.30;;;;;;5112819;28;20072;-58
2023/06/11 11:37:40;;;;;;;8.40;6.20;;;29.20;88.60;;;;;;5115383;28;20032;-58
2023/06/11 11:40:07;;;;;;;8.35;6.43;;;29.40;87.90;;;;;;5114623;28;20112;-58
2023/06/11 11:42:55;;;;;;;8.52;6.10;;;29.50;88.60;;;;;;5115082;28;20046;-58
2023/06/11 11:45:23;;;;;;;9.15;6.22;;;29.30;85.10;;;;;;5118296;28;20054;-57
2023/06/11 11:47:50;;;;;;;9.57;6.00;;;29.50;86.50;;;;;;5118422;28;20067;-57
2023/06/11 11:50:21;;;;;;;9.50;6.45;;;29.60;87.70;;;;;;5118306;28;20130;-57
2023/06/11 11:53:05;;;;;;;10.37;6.03;;;29.60;85.70;;;;;;5117664;28;20043;-57
2023/06/11 11:55:36;;;;;;;10.15;5.65;;;29.80;83.70;;;;;;5116071;28;20292;-58
2023/06/11 11:58:12;;;;;;;8.40;5.57;;;29.60;79.60;;;;;;5117814;28;20055;-57
2023/06/11 12:00:49;;;;;;;8.85;5.70;;;29.80;80.90;;;;;;5118407;27;20047;-57
2023/06/11 12:03:18;;;;;;;9.95;5.40;;;29.80;80.40;;;;;;5118741;28;20070;-58
2023/06/11 12:05:58;;;;;;;8.30;5.85;;;30.10;81.10;;;;;;5118364;28;20047;-57
2023/06/11 12:08:25;;;;;;;8.57;5.45;;;29.90;76.80;;;;;;5117283;28;20043;-58
2023/06/11 12:10:51;;;;;;;8.07;5.75;;;29.90;78.20;;;;;;5118024;28;20131;-58
2023/06/11 12:13:17;;;;;;;8.07;5.57;;;29.90;78.70;;;;;;5118415;28;20086;-57
2023/06/11 12:15:43;;;;;;;8.70;5.60;;;30.10;79.10;;;;;;5118278;28;20047;-57
2023/06/11 12:18:08;;;;;;;7.65;5.60;;;29.90;78.20;;;;;;5117874;28;20069;-58
2023/06/11 12:20:34;;;;;;;10.73;5.85;;;30.00;77.40;;;;;;5118079;28;20059;-57
2023/06/11 12:22:59;;;;;;;10.13;5.88;;;29.80;76.70;;;;;;5117201;28;20039;-57
2023/06/11 12:25:25;;;;;;;7.22;5.32;;;29.90;77.90;;;;;;5118022;28;20050;-57
2023/06/11 12:27:52;;;;;;;11.70;6.13;;;30.00;76.80;;;;;;5118184;28;20043;-58
2023/06/11 12:30:17;;;;;;;9.50;6.07;;;29.80;74.20;;;;;;5118222;28;20043;-57
2023/06/11 12:32:43;;;;;;;8.18;5.53;;;30.00;75.50;;;;;;5117587;28;20128;-58
2023/06/11 12:35:09;;;;;;;8.00;5.63;;;30.00;75.20;;;;;;5117515;28;20067;-58